Time;durP1;ratioP1;P1;durP2;ratioP2;P2;SDS_P1;SDS_P2;PMS_P1;PMS_P2;Temp;Humidity;BMP_temperature;BMP_pressure;BME280_temperature;BME280_humidity;BME280_pressure;Samples;Min_cycle;Max_cycle;Signal;HPM_P1;HPM_P2
2023/09/05 00:00:19;;;;;;;5.57;4.65;;;;;;;18.60;77.15;101715.75;3607416;39;20330;-65
2023/09/05 00:02:48;;;;;;;5.40;4.85;;;;;;;18.58;77.38;101727.75;3596269;39;21096;-67
2023/09/05 00:05:15;;;;;;;4.93;4.38;;;;;;;18.54;77.67;101732.59;3596934;39;20394;-66
2023/09/05 00:07:41;;;;;;;5.70;4.28;;;;;;;18.51;78.04;101724.66;3600831;39;20520;-66
2023/09/05 00:10:13;;;;;;;5.60;3.83;;;;;;;18.47;78.28;101725.91;3602199;39;20094;-66
2023/09/05 00:12:43;;;;;;;4.72;4.22;;;;;;;18.43;77.91;101719.00;3605258;39;20371;-66
2023/09/05 00:15:14;;;;;;;5.68;3.70;;;;;;;18.39;78.35;101720.22;3605811;39;20318;-65
2023/09/05 00:17:41;;;;;;;4.10;3.70;;;;;;;18.37;78.42;101714.91;3595426;39;20066;-65
2023/09/05 00:20:08;;;;;;;4.85;4.25;;;;;;;18.36;78.49;101712.28;3607713;39;20047;-65
2023/09/05 00:22:35;;;;;;;6.15;4.15;;;;;;;18.26;78.88;101704.88;3604575;39;20053;-66
2023/09/05 00:25:01;;;;;;;4.80;4.13;;;;;;;18.30;78.70;101713.69;3592823;39;20116;-66
2023/09/05 00:27:27;;;;;;;4.53;4.13;;;;;;;18.23;78.92;101715.13;3603059;39;20073;-67
2023/09/05 00:29:52;;;;;;;5.03;4.38;;;;;;;18.21;78.88;101723.44;3606203;39;20382;-66
2023/09/05 00:32:19;;;;;;;6.57;4.68;;;;;;;18.15;78.52;101715.75;3599302;39;20047;-68
2023/09/05 00:34:46;;;;;;;6.90;4.60;;;;;;;18.16;78.63;101713.91;3604799;39;20059;-66
2023/09/05 00:37:19;;;;;;;5.28;4.22;;;;;;;18.04;78.93;101702.13;3600879;39;20055;-67
2023/09/05 00:39:45;;;;;;;6.63;4.65;;;;;;;18.09;78.83;101716.25;3604136;39;20381;-68
2023/09/05 00:42:12;;;;;;;5.03;4.30;;;;;;;18.08;78.28;101719.97;3605930;39;20047;-65
2023/09/05 00:44:38;;;;;;;6.07;4.60;;;;;;;18.06;78.76;101725.50;3605770;39;20058;-66
2023/09/05 00:47:04;;;;;;;5.72;5.05;;;;;;;18.03;79.12;101733.91;3605739;39;20055;-67
2023/09/05 00:49:39;;;;;;;6.65;4.40;;;;;;;18.01;79.14;101721.41;3605794;39;20066;-66
2023/09/05 00:52:08;;;;;;;7.22;4.63;;;;;;;17.96;78.57;101724.50;3604683;39;20058;-67
2023/09/05 00:54:37;;;;;;;6.43;4.25;;;;;;;17.93;79.61;101726.63;3603542;39;20390;-68
2023/09/05 00:57:03;;;;;;;5.43;4.70;;;;;;;17.83;79.58;101716.44;3606909;39;20067;-65
2023/09/05 00:59:29;;;;;;;4.63;4.20;;;;;;;17.71;79.75;101695.63;3605696;39;20050;-64
2023/09/05 01:01:55;;;;;;;6.03;4.55;;;;;;;17.84;79.17;101720.03;3605857;39;20051;-65
2023/09/05 01:04:21;;;;;;;5.53;4.70;;;;;;;17.82;79.71;101722.88;3606709;39;20106;-66
2023/09/05 01:07:03;;;;;;;7.68;4.53;;;;;;;17.71;78.96;101703.78;3605146;39;20071;-66
2023/09/05 01:09:44;;;;;;;5.70;4.80;;;;;;;17.75;78.99;101726.16;3594762;39;20145;-65
2023/09/05 01:12:11;;;;;;;5.57;4.70;;;;;;;17.69;80.28;101716.59;3603008;39;20063;-70
2023/09/05 01:14:36;;;;;;;5.22;4.72;;;;;;;17.66;79.75;101722.28;3601219;39;20047;-66
2023/09/05 01:17:05;;;;;;;5.75;5.10;;;;;;;17.65;79.63;101717.84;3604870;39;20066;-67
2023/09/05 01:19:34;;;;;;;5.50;4.88;;;;;;;17.62;79.80;101709.91;3598838;39;20047;-67
2023/09/05 01:22:13;;;;;;;6.18;5.05;;;;;;;17.60;79.83;101709.16;3603723;39;20093;-65
2023/09/05 01:24:42;;;;;;;6.57;5.60;;;;;;;17.57;80.32;101714.84;3597392;39;20055;-65
2023/09/05 01:27:10;;;;;;;6.57;5.25;;;;;;;17.55;79.45;101714.13;3605906;39;20139;-67
2023/09/05 01:29:39;;;;;;;6.82;5.55;;;;;;;17.39;79.67;101690.81;3604699;39;20063;-66
2023/09/05 01:32:09;;;;;;;9.15;6.75;;;;;;;17.52;80.17;101723.38;3608453;39;20056;-68
2023/09/05 01:34:35;;;;;;;7.93;6.97;;;;;;;17.49;80.11;101734.47;3604830;39;20137;-65
2023/09/05 01:37:01;;;;;;;8.10;6.93;;;;;;;17.47;80.08;101730.13;3604642;39;20064;-65
2023/09/05 01:39:27;;;;;;;6.55;5.95;;;;;;;17.33;79.65;101715.75;3606090;39;20071;-64
2023/09/05 01:41:52;;;;;;;9.65;6.10;;;;;;;17.27;80.33;101708.06;3604554;39;20054;-66
2023/09/05 01:44:19;;;;;;;7.43;5.50;;;;;;;17.39;79.84;101731.59;3608292;39;20060;-64
2023/09/05 01:46:45;;;;;;;6.88;6.00;;;;;;;17.26;80.34;101705.47;3593816;39;20044;-65
2023/09/05 01:49:10;;;;;;;7.28;5.82;;;;;;;17.18;80.28;101696.03;3603635;39;20053;-64
2023/09/05 01:51:36;;;;;;;9.32;5.53;;;;;;;17.36;80.27;101718.22;3604696;39;20071;-65
2023/09/05 01:54:03;;;;;;;7.10;5.95;;;;;;;17.31;80.24;101725.84;3604631;39;20479;-65
2023/09/05 01:56:29;;;;;;;6.38;5.78;;;;;;;17.22;80.83;101706.66;3603881;39;20047;-65
2023/09/05 01:58:55;;;;;;;7.43;6.10;;;;;;;17.13;80.45;101694.66;3604553;39;20125;-67
2023/09/05 02:01:20;;;;;;;6.45;5.88;;;;;;;17.24;81.00;101721.88;3604804;39;20054;-67
2023/09/05 02:03:48;;;;;;;8.80;5.78;;;;;;;17.24;80.44;101729.16;3604642;39;20063;-66
2023/09/05 02:06:13;;;;;;;8.23;6.38;;;;;;;17.22;80.88;101725.69;3607488;39;20048;-65
2023/09/05 02:08:39;;;;;;;8.35;6.45;;;;;;;17.23;81.26;101724.72;3606197;39;20055;-66
2023/09/05 02:11:05;;;;;;;6.65;6.03;;;;;;;17.22;81.05;101714.81;3603665;39;20055;-65
2023/09/05 02:13:31;;;;;;;8.48;6.60;;;;;;;17.13;79.83;101711.84;3605105;39;20057;-66
2023/09/05 02:15:57;;;;;;;7.50;6.80;;;;;;;17.15;80.88;101714.41;3603660;39;20055;-67
2023/09/05 02:18:23;;;;;;;6.75;6.00;;;;;;;17.17;80.04;101720.63;3605731;39;20042;-66
2023/09/05 02:20:49;;;;;;;6.60;6.00;;;;;;;17.09;80.65;101704.00;3605904;39;20095;-67
2023/09/05 02:23:14;;;;;;;8.38;6.10;;;;;;;17.15;80.59;101714.41;3604508;39;20061;-66
2023/09/05 02:25:41;;;;;;;7.82;5.85;;;;;;;17.14;80.76;101715.41;3602411;39;20055;-66
2023/09/05 02:28:07;;;;;;;8.70;6.13;;;;;;;17.12;80.89;101710.06;3604578;39;20051;-65
2023/09/05 02:30:39;;;;;;;7.82;5.70;;;;;;;17.09;80.67;101709.44;3604615;39;20055;-67
2023/09/05 02:33:08;;;;;;;6.60;5.57;;;;;;;17.07;79.90;101711.44;3604629;39;20047;-64
2023/09/05 02:35:34;;;;;;;6.45;5.18;;;;;;;17.03;80.54;101707.19;3606798;39;20182;-66
2023/09/05 02:37:59;;;;;;;7.25;5.15;;;;;;;17.04;79.14;101709.81;3602988;39;20355;-67
2023/09/05 02:40:25;;;;;;;5.30;4.80;;;;;;;17.05;79.38;101721.53;3604529;39;20329;-66
2023/09/05 02:42:51;;;;;;;6.53;4.88;;;;;;;17.05;79.68;101719.69;3601697;39;20072;-65
2023/09/05 02:45:16;;;;;;;5.90;5.30;;;;;;;17.05;79.27;101718.81;3604010;39;20570;-66
2023/09/05 02:47:42;;;;;;;6.72;5.40;;;;;;;16.94;79.66;101698.75;3592935;39;20054;-68
2023/09/05 02:50:08;;;;;;;5.53;4.90;;;;;;;17.00;79.52;101710.13;3602595;39;20058;-66
2023/09/05 02:52:34;;;;;;;6.93;5.05;;;;;;;16.98;78.58;101706.69;3602809;39;20335;-66
2023/09/05 02:55:03;;;;;;;6.70;5.13;;;;;;;16.94;79.47;101704.19;3604489;39;20071;-66
2023/09/05 02:57:29;;;;;;;5.28;4.78;;;;;;;16.92;79.37;101698.00;3603831;39;20063;-66
2023/09/05 02:59:55;;;;;;;7.57;4.68;;;;;;;16.88;78.93;101696.50;3603873;39;20302;-67
2023/09/05 03:02:24;;;;;;;5.40;4.90;;;;;;;16.90;79.30;101707.25;3604447;39;20439;-65
2023/09/05 03:04:54;;;;;;;8.27;5.20;;;;;;;16.89;79.17;101709.09;3591626;39;20059;-66
2023/09/05 03:07:21;;;;;;;5.40;4.80;;;;;;;16.85;79.36;101694.03;3605139;39;20067;-66
2023/09/05 03:09:51;;;;;;;6.10;5.07;;;;;;;16.86;79.25;101694.88;3606940;39;20032;-67
2023/09/05 03:12:17;;;;;;;5.32;4.82;;;;;;;16.70;79.25;101667.97;3604385;39;20058;-66
2023/09/05 03:14:45;;;;;;;6.18;5.18;;;;;;;16.85;79.06;101696.72;3606211;39;20110;-68
2023/09/05 03:17:11;;;;;;;9.30;4.80;;;;;;;16.81;79.85;101700.66;3604037;39;20463;-68
2023/09/05 03:19:39;;;;;;;6.68;4.90;;;;;;;16.79;79.65;101701.75;3602726;39;20085;-66
2023/09/05 03:22:07;;;;;;;8.85;4.82;;;;;;;16.75;79.63;101711.97;3602562;39;20078;-65
2023/09/05 03:24:35;;;;;;;5.65;4.82;;;;;;;16.65;80.13;101690.03;3603011;39;20066;-66
2023/09/05 03:27:03;;;;;;;6.78;5.00;;;;;;;16.63;80.29;101696.56;3604466;39;20053;-66
2023/09/05 03:29:28;;;;;;;5.93;4.68;;;;;;;16.66;80.12;101696.34;3602270;39;20059;-67
2023/09/05 03:31:54;;;;;;;7.40;5.20;;;;;;;16.52;80.70;101678.31;3605024;39;20108;-66
2023/09/05 03:34:20;;;;;;;5.07;4.68;;;;;;;16.61;81.20;101693.06;3603258;39;20302;-67
2023/09/05 03:36:47;;;;;;;5.78;4.80;;;;;;;16.58;81.00;101687.88;3602015;39;20163;-66
2023/09/05 03:39:13;;;;;;;4.90;4.40;;;;;;;16.55;81.05;101683.53;3604660;39;20063;-67
2023/09/05 03:41:39;;;;;;;6.53;4.75;;;;;;;16.57;82.02;101691.56;3605744;39;20047;-66
2023/09/05 03:44:05;;;;;;;7.13;4.55;;;;;;;16.51;81.46;101684.75;3606107;39;20050;-68
2023/09/05 03:46:30;;;;;;;6.75;4.45;;;;;;;16.50;81.50;101683.00;3603744;39;20069;-66
2023/09/05 03:48:57;;;;;;;6.38;4.80;;;;;;;16.42;82.18;101680.84;3604075;39;20051;-68
2023/09/05 03:51:23;;;;;;;5.97;4.93;;;;;;;16.45;82.07;101694.19;3602555;39;20047;-67
2023/09/05 03:53:49;;;;;;;5.55;4.95;;;;;;;16.43;82.46;101688.03;3603070;39;20336;-69
2023/09/05 03:56:16;;;;;;;5.88;4.28;;;;;;;16.42;82.05;101683.56;3591495;39;20047;-67
2023/09/05 03:58:41;;;;;;;6.00;4.82;;;;;;;16.41;82.76;101689.13;3605582;39;20091;-66
2023/09/05 04:01:16;;;;;;;4.80;4.40;;;;;;;16.34;82.16;101679.69;3601373;39;20051;-66
2023/09/05 04:03:45;;;;;;;5.68;4.43;;;;;;;16.39;81.88;101689.22;3592145;39;20062;-66
2023/09/05 04:06:11;;;;;;;5.30;4.45;;;;;;;16.21;82.21;101658.88;3603417;39;20219;-67
2023/09/05 04:08:37;;;;;;;7.70;4.60;;;;;;;16.39;82.48;101682.91;3601826;39;20066;-67
2023/09/05 04:11:02;;;;;;;6.15;4.90;;;;;;;16.35;82.28;101679.56;3594091;39;20497;-66
2023/09/05 04:13:29;;;;;;;7.05;4.75;;;;;;;16.24;82.57;101655.06;3606886;39;20051;-66
2023/09/05 04:16:02;;;;;;;7.15;5.13;;;;;;;16.34;82.16;101675.13;3600891;39;20116;-67
2023/09/05 04:18:27;;;;;;;8.05;4.82;;;;;;;16.39;82.08;101675.63;3606360;39;20444;-66
2023/09/05 04:21:00;;;;;;;6.43;5.07;;;;;;;16.39;81.74;101669.34;3602037;39;20055;-65
2023/09/05 04:23:26;;;;;;;7.05;4.72;;;;;;;16.28;81.98;101648.44;3602321;39;20099;-67
2023/09/05 04:26:00;;;;;;;8.07;4.57;;;;;;;16.35;81.86;101657.84;3605306;39;20047;-66
2023/09/05 04:28:27;;;;;;;5.20;4.70;;;;;;;16.39;81.91;101667.50;3602510;39;20382;-67
2023/09/05 04:30:55;;;;;;;5.82;4.35;;;;;;;16.27;81.77;101637.69;3602837;39;20480;-66
2023/09/05 04:33:32;;;;;;;4.85;4.35;;;;;;;16.42;81.33;101663.69;3605587;39;20131;-66
2023/09/05 04:35:58;;;;;;;5.38;4.80;;;;;;;16.41;81.90;101665.56;3593477;39;20124;-66
2023/09/05 04:38:24;;;;;;;8.57;4.80;;;;;;;16.38;81.57;101660.34;3603404;39;20061;-66
2023/09/05 04:40:49;;;;;;;7.45;4.07;;;;;;;16.46;80.99;101670.66;3601886;39;20066;-66
2023/09/05 04:43:15;;;;;;;8.85;4.80;;;;;;;15.96;81.28;101583.81;3601563;39;20075;-66
2023/09/05 04:45:41;;;;;;;7.20;4.20;;;;;;;16.25;80.56;101621.53;3605116;39;20111;-66
2023/09/05 04:48:06;;;;;;;5.75;4.10;;;;;;;16.52;79.68;101672.03;3603246;39;20052;-66
2023/09/05 04:50:32;;;;;;;4.63;3.53;;;;;;;16.55;79.66;101652.81;3600958;39;20053;-66
2023/09/05 04:52:58;;;;;;;5.88;3.58;;;;;;;16.59;79.43;101654.34;3602185;39;20070;-66
2023/09/05 04:55:24;;;;;;;7.70;4.00;;;;;;;16.64;79.78;101654.84;3601678;39;20114;-68
2023/09/05 04:57:50;;;;;;;6.00;3.80;;;;;;;16.66;78.96;101663.75;3601662;39;20067;-67
2023/09/05 05:00:17;;;;;;;5.07;3.80;;;;;;;16.68;78.88;101662.66;3601629;39;20090;-66
2023/09/05 05:02:44;;;;;;;7.15;3.80;;;;;;;16.76;79.43;101664.84;3601331;39;20058;-66
2023/09/05 05:05:11;;;;;;;5.07;3.92;;;;;;;16.80;78.70;101660.91;3601134;39;20066;-65
2023/09/05 05:07:39;;;;;;;5.97;3.90;;;;;;;16.81;77.13;101656.31;3602852;39;20136;-64
2023/09/05 05:10:05;;;;;;;4.68;3.30;;;;;;;16.86;77.91;101660.44;3598098;39;20050;-66
2023/09/05 05:13:23;;;;;;;4.90;3.60;;;;;;;16.90;77.43;101664.69;3602166;39;20048;-65
2023/09/05 05:15:49;;;;;;;5.05;3.55;;;;;;;16.93;77.32;101672.56;3596647;39;20744;-63
2023/09/05 05:18:15;;;;;;;6.45;3.55;;;;;;;16.95;76.46;101669.75;3591992;39;20066;-63
2023/09/05 05:20:41;;;;;;;5.07;3.53;;;;;;;16.82;76.76;101645.38;3594451;39;20060;-65
2023/09/05 05:23:07;;;;;;;4.38;3.53;;;;;;;17.02;75.80;101681.00;3592381;39;20058;-64
2023/09/05 05:25:32;;;;;;;4.25;3.40;;;;;;;17.02;77.10;101670.16;3591358;39;20071;-65
2023/09/05 05:27:59;;;;;;;8.75;3.50;;;;;;;17.04;76.62;101673.63;3592668;39;20401;-64
2023/09/05 05:30:24;;;;;;;6.85;3.72;;;;;;;17.08;76.33;101686.84;3590900;39;20071;-64
2023/09/05 05:32:50;;;;;;;4.22;3.28;;;;;;;17.09;76.87;101687.72;3574668;39;20578;-63
2023/09/05 05:35:16;;;;;;;6.28;3.78;;;;;;;17.06;77.85;101688.84;3591062;39;20052;-66
2023/09/05 05:37:41;;;;;;;6.55;3.58;;;;;;;17.04;77.36;101689.94;3593661;39;20070;-67
2023/09/05 05:40:11;;;;;;;6.25;3.70;;;;;;;17.04;77.47;101695.34;3581707;39;20052;-65
2023/09/05 05:42:37;;;;;;;4.28;3.35;;;;;;;17.04;77.70;101689.94;3595369;39;20097;-65
2023/09/05 05:45:03;;;;;;;11.98;6.97;;;;;;;17.05;77.82;101688.94;3596792;39;20060;-65
2023/09/05 05:47:31;;;;;;;7.20;5.88;;;;;;;17.06;78.25;101682.50;3591546;39;20689;-64
2023/09/05 05:49:57;;;;;;;8.00;4.35;;;;;;;17.12;76.85;101684.75;3593784;39;20384;-65
2023/09/05 05:52:23;;;;;;;7.68;3.80;;;;;;;17.19;76.57;101683.34;3593930;39;20067;-66
2023/09/05 05:54:49;;;;;;;5.30;3.28;;;;;;;17.26;75.66;101684.59;3593408;39;20424;-65
2023/09/05 05:57:14;;;;;;;5.30;3.20;;;;;;;17.36;74.27;101682.91;3593895;39;20051;-66
2023/09/05 05:59:40;;;;;;;4.47;3.28;;;;;;;17.47;74.42;101686.63;3591986;39;20429;-66
2023/09/05 06:02:05;;;;;;;4.40;3.00;;;;;;;17.55;73.86;101686.91;3594470;39;20056;-69
2023/09/05 06:04:31;;;;;;;5.30;3.35;;;;;;;17.62;73.45;101682.72;3591805;39;20469;-65
2023/09/05 06:06:57;;;;;;;5.60;3.25;;;;;;;17.74;72.97;101689.94;3592268;39;20104;-67
2023/09/05 06:09:22;;;;;;;5.18;3.22;;;;;;;17.84;71.28;101693.69;3593075;39;20087;-68
2023/09/05 06:11:48;;;;;;;6.30;3.03;;;;;;;17.94;71.13;101684.81;3594508;39;20062;-65
2023/09/05 06:14:14;;;;;;;3.25;2.88;;;;;;;18.08;70.00;101690.03;3594270;39;20058;-66
2023/09/05 06:16:40;;;;;;;3.45;2.90;;;;;;;18.01;70.37;101662.41;3584963;39;20113;-67
2023/09/05 06:19:08;;;;;;;3.83;3.35;;;;;;;18.23;69.63;101686.06;3583767;39;20063;-66
2023/09/05 06:21:34;;;;;;;5.28;3.38;;;;;;;18.21;69.97;101665.41;3592324;39;20063;-67
2023/09/05 06:24:00;;;;;;;8.38;3.20;;;;;;;18.31;69.95;101686.31;3595586;39;20095;-68
2023/09/05 06:26:26;;;;;;;6.22;3.10;;;;;;;18.40;69.73;101692.88;3593437;39;20067;-66
2023/09/05 06:28:53;;;;;;;3.22;2.92;;;;;;;18.48;69.09;101689.53;3593543;39;20063;-66
2023/09/05 06:31:20;;;;;;;5.78;3.28;;;;;;;18.50;69.17;101684.81;3593241;39;20296;-64
2023/09/05 06:33:46;;;;;;;6.25;2.90;;;;;;;18.53;68.45;101682.72;3593279;39;20101;-67
2023/09/05 06:36:11;;;;;;;7.03;3.03;;;;;;;18.62;68.64;101685.69;3593632;39;20303;-68
2023/09/05 06:38:37;;;;;;;7.97;2.97;;;;;;;18.68;68.56;101693.31;3592696;39;20095;-68
2023/09/05 06:41:08;;;;;;;7.00;3.55;;;;;;;18.74;68.54;101696.47;3592019;39;20367;-68
2023/09/05 06:43:33;;;;;;;4.25;2.90;;;;;;;18.73;68.19;101681.09;3594084;39;20058;-68
2023/09/05 06:46:07;;;;;;;3.63;2.90;;;;;;;18.92;67.01;101698.66;3593115;39;20063;-69
2023/09/05 06:48:39;;;;;;;3.65;2.60;;;;;;;19.02;66.64;101699.59;3592232;39;20140;-68
2023/09/05 06:51:04;;;;;;;4.18;2.90;;;;;;;19.11;66.79;101690.66;3591394;39;20052;-68
2023/09/05 06:53:33;;;;;;;7.15;2.80;;;;;;;19.21;66.77;101691.59;3593793;39;20113;-68
2023/09/05 06:55:59;;;;;;;5.30;2.80;;;;;;;19.24;65.30;101677.72;3587982;39;20067;-68
2023/09/05 06:58:26;;;;;;;3.15;2.85;;;;;;;19.45;65.94;101687.81;3592678;39;20131;-68
2023/09/05 07:00:55;;;;;;;5.90;2.85;;;;;;;19.55;65.25;101680.56;3593164;39;20325;-68
2023/09/05 07:03:25;;;;;;;4.97;3.00;;;;;;;19.70;65.35;101679.25;3593483;39;20378;-69
2023/09/05 07:05:53;;;;;;;5.45;3.17;;;;;;;19.84;64.25;101675.31;3592796;39;20095;-68
2023/09/05 07:08:19;;;;;;;5.00;2.70;;;;;;;19.86;63.61;101661.56;3586167;39;20049;-68
2023/09/05 07:10:48;;;;;;;2.80;2.60;;;;;;;20.14;62.69;101669.03;3593243;39;20076;-68
2023/09/05 07:13:14;;;;;;;6.10;2.40;;;;;;;20.30;61.80;101678.59;3591244;39;20051;-70
2023/09/05 07:15:40;;;;;;;5.00;2.70;;;;;;;20.50;62.56;101674.91;3595986;39;20490;-67
2023/09/05 07:18:05;;;;;;;3.83;2.50;;;;;;;20.70;63.54;101678.59;3594823;39;20075;-68
2023/09/05 07:20:32;;;;;;;4.80;2.40;;;;;;;20.89;62.84;101665.97;3595759;39;20060;-70
2023/09/05 07:22:58;;;;;;;3.58;2.63;;;;;;;21.02;60.61;101661.09;3592191;39;20121;-68
2023/09/05 07:25:24;;;;;;;2.38;2.15;;;;;;;21.24;58.68;101671.75;3592265;39;20368;-68
2023/09/05 07:27:49;;;;;;;3.38;2.17;;;;;;;21.42;58.68;101671.06;3590651;39;20086;-66
2023/09/05 07:30:16;;;;;;;7.93;3.35;;;;;;;21.61;57.78;101668.31;3592324;39;20430;-67
2023/09/05 07:32:43;;;;;;;6.28;2.58;;;;;;;21.69;57.22;101656.63;3593063;39;20122;-69
2023/09/05 07:35:08;;;;;;;2.65;2.40;;;;;;;21.92;57.32;101660.75;3589765;39;20067;-67
2023/09/05 07:37:34;;;;;;;5.38;3.00;;;;;;;22.18;56.95;101663.72;3592798;39;20047;-66
2023/09/05 07:39:59;;;;;;;4.65;2.60;;;;;;;22.30;55.28;101650.72;3589757;39;20326;-69
2023/09/05 07:42:27;;;;;;;4.07;2.75;;;;;;;22.41;54.96;101655.97;3592146;39;20310;-68
2023/09/05 07:44:53;;;;;;;3.88;2.53;;;;;;;22.60;54.96;101656.88;3590647;39;20054;-67
2023/09/05 07:47:18;;;;;;;4.53;2.63;;;;;;;22.75;54.37;101658.09;3593921;39;20079;-68
2023/09/05 07:49:44;;;;;;;5.70;2.63;;;;;;;22.99;55.59;101654.78;3596278;39;20095;-67
2023/09/05 07:52:10;;;;;;;4.97;2.28;;;;;;;23.16;54.40;101666.78;3592636;39;20302;-67
2023/09/05 07:54:36;;;;;;;3.08;2.20;;;;;;;23.35;54.00;101672.13;3588272;40;20082;-66
2023/09/05 07:57:03;;;;;;;2.35;2.15;;;;;;;23.50;53.17;101674.28;3597219;39;20059;-66
2023/09/05 07:59:29;;;;;;;3.05;2.58;;;;;;;23.60;51.82;101675.06;3596632;39;20064;-68
2023/09/05 08:01:57;;;;;;;3.50;2.08;;;;;;;23.68;51.91;101671.53;3598368;39;20055;-66
2023/09/05 08:04:24;;;;;;;4.13;2.40;;;;;;;23.82;50.77;101669.09;3598389;39;20078;-67
2023/09/05 08:06:50;;;;;;;6.57;2.30;;;;;;;23.93;50.32;101669.84;3596540;39;20390;-66
2023/09/05 08:09:16;;;;;;;3.17;2.20;;;;;;;24.03;51.57;101676.06;3593268;39;20056;-65
2023/09/05 08:11:41;;;;;;;4.50;2.63;;;;;;;24.18;51.40;101682.69;3595567;39;20051;-66
2023/09/05 08:14:07;;;;;;;2.95;2.35;;;;;;;24.33;51.43;101675.56;3595512;39;20068;-68
2023/09/05 08:16:34;;;;;;;3.22;2.10;;;;;;;24.48;51.14;101670.31;3594468;39;20051;-68
2023/09/05 08:19:00;;;;;;;2.45;2.25;;;;;;;24.58;49.73;101661.09;3596108;39;20055;-66
2023/09/05 08:21:26;;;;;;;3.97;2.13;;;;;;;24.77;50.39;101672.69;3589306;39;20055;-67
2023/09/05 08:23:52;;;;;;;3.65;2.55;;;;;;;24.77;49.69;101647.94;3590934;39;20083;-68
2023/09/05 08:26:18;;;;;;;5.82;2.30;;;;;;;25.10;47.70;101680.16;3594141;39;20056;-66
2023/09/05 08:28:45;;;;;;;4.53;2.25;;;;;;;25.19;47.99;101674.53;3595184;39;20047;-67
2023/09/05 08:31:12;;;;;;;4.47;2.17;;;;;;;25.33;49.07;101681.22;3594036;39;20076;-66
2023/09/05 08:33:38;;;;;;;2.85;2.25;;;;;;;25.40;48.30;101668.50;3594515;39;20120;-66
2023/09/05 08:36:08;;;;;;;3.58;2.50;;;;;;;25.55;47.95;101674.19;3596827;39;20083;-66
2023/09/05 08:38:37;;;;;;;3.30;2.40;;;;;;;25.71;48.00;101668.66;3598091;39;20059;-66
2023/09/05 08:41:06;;;;;;;4.03;2.45;;;;;;;25.95;47.96;101660.59;3596753;39;20070;-67
2023/09/05 08:43:33;;;;;;;2.90;2.10;;;;;;;26.13;47.44;101656.59;3595482;39;20065;-65
2023/09/05 08:46:02;;;;;;;2.90;2.33;;;;;;;26.32;47.19;101668.22;3594118;39;20087;-68
2023/09/05 08:48:29;;;;;;;4.05;1.90;;;;;;;26.44;44.72;101665.94;3593674;39;20117;-68
2023/09/05 08:50:58;;;;;;;2.30;2.10;;;;;;;26.59;45.48;101666.94;3584529;39;20086;-68
2023/09/05 08:53:35;;;;;;;2.80;2.47;;;;;;;26.66;45.91;101656.91;3595111;39;20283;-69
2023/09/05 08:56:01;;;;;;;2.88;2.03;;;;;;;26.73;44.18;101665.31;3595339;39;20394;-66
2023/09/05 08:58:29;;;;;;;2.20;1.80;;;;;;;26.77;44.16;101669.44;3599090;39;20051;-69
2023/09/05 09:00:55;;;;;;;2.35;2.15;;;;;;;26.91;44.00;101674.19;3593023;39;20387;-68
2023/09/05 09:03:21;;;;;;;2.30;2.10;;;;;;;27.02;44.52;101672.91;3597763;39;20054;-67
2023/09/05 09:05:47;;;;;;;3.50;2.40;;;;;;;27.23;44.94;101675.03;3600272;39;20054;-66
2023/09/05 09:08:13;;;;;;;4.93;2.10;;;;;;;27.11;43.09;101632.31;3588176;39;20414;-67
2023/09/05 09:10:40;;;;;;;3.67;2.28;;;;;;;27.40;43.87;101682.13;3594806;39;20054;-68
2023/09/05 09:13:19;;;;;;;5.30;2.30;;;;;;;27.50;45.00;101668.97;3597008;39;20056;-67
2023/09/05 09:15:46;;;;;;;4.10;2.20;;;;;;;27.58;43.14;101656.09;3594689;39;20047;-67
2023/09/05 09:18:20;;;;;;;3.33;2.13;;;;;;;27.73;43.63;101676.34;3593231;39;20059;-67
2023/09/05 09:20:49;;;;;;;2.40;2.10;;;;;;;27.88;43.15;101682.81;3586864;39;20054;-68
2023/09/05 09:23:29;;;;;;;10.60;2.42;;;;;;;28.03;43.46;101687.47;3594078;39;20052;-68
2023/09/05 09:25:57;;;;;;;6.40;2.83;;;;;;;28.17;42.87;101681.13;3596217;39;20064;-67
2023/09/05 09:28:29;;;;;;;3.92;1.95;;;;;;;28.23;41.45;101681.22;3598456;39;20044;-67
2023/09/05 09:31:13;;;;;;;3.83;2.40;;;;;;;28.32;42.88;101684.72;3597702;39;20112;-66
2023/09/05 09:33:41;;;;;;;5.35;1.95;;;;;;;28.58;42.20;101687.03;3595820;39;20058;-67
2023/09/05 09:36:12;;;;;;;3.85;2.03;;;;;;;28.77;41.97;101696.66;3594907;39;20153;-66
2023/09/05 09:38:39;;;;;;;5.18;2.60;;;;;;;28.99;41.89;101691.13;3595264;39;20047;-66
2023/09/05 09:41:07;;;;;;;2.85;2.60;;;;;;;29.10;40.99;101688.75;3597252;39;20069;-67
2023/09/05 09:43:37;;;;;;;3.53;2.00;;;;;;;29.18;41.19;101690.56;3597680;39;20349;-66
2023/09/05 09:46:08;;;;;;;2.38;2.05;;;;;;;29.31;39.28;101696.22;3597337;39;20082;-69
2023/09/05 09:48:36;;;;;;;3.90;1.80;;;;;;;29.26;40.52;101679.34;3598359;39;20095;-65
2023/09/05 09:51:06;;;;;;;2.55;2.08;;;;;;;29.30;39.78;101669.56;3594475;39;20052;-67
2023/09/05 09:53:39;;;;;;;2.08;1.88;;;;;;;29.53;40.21;101690.69;3593864;39;20047;-66
2023/09/05 09:56:11;;;;;;;2.97;1.92;;;;;;;29.65;40.55;101691.03;3597025;39;20407;-66
2023/09/05 09:58:45;;;;;;;3.95;2.00;;;;;;;29.64;39.82;101692.94;3597834;39;20060;-66
2023/09/05 10:01:14;;;;;;;2.95;2.40;;;;;;;29.73;39.94;101688.97;3595861;39;20253;-67
2023/09/05 10:03:44;;;;;;;3.58;2.60;;;;;;;29.89;39.59;101690.59;3591612;39;20068;-67
2023/09/05 10:06:11;;;;;;;2.72;2.10;;;;;;;30.07;40.03;101692.88;3593098;39;20063;-66
2023/09/05 10:08:38;;;;;;;3.75;2.22;;;;;;;30.12;38.71;101695.88;3594637;39;20279;-66
2023/09/05 10:11:05;;;;;;;2.85;2.00;;;;;;;30.19;39.39;101688.47;3587928;39;21892;-69
2023/09/05 10:13:35;;;;;;;3.63;2.08;;;;;;;30.38;40.73;101680.47;3591626;39;20075;-66
2023/09/05 10:16:01;;;;;;;3.22;1.75;;;;;;;30.53;40.14;101679.28;3584830;39;20063;-69
2023/09/05 10:18:30;;;;;;;3.78;1.80;;;;;;;30.58;37.67;101656.47;3591204;39;20048;-66
2023/09/05 10:21:00;;;;;;;3.90;2.20;;;;;;;30.70;38.25;101670.59;3587845;39;20052;-67
2023/09/05 10:23:32;;;;;;;3.28;2.10;;;;;;;30.67;37.36;101674.66;3593856;39;20052;-67
2023/09/05 10:26:03;;;;;;;2.95;2.33;;;;;;;30.61;38.10;101672.72;3591982;39;20055;-66
2023/09/05 10:28:29;;;;;;;6.00;3.00;;;;;;;30.57;37.54;101660.28;3591493;39;20055;-65
2023/09/05 10:31:06;;;;;;;8.95;2.40;;;;;;;30.74;38.21;101630.28;3592284;39;20648;-67
2023/09/05 10:33:35;;;;;;;2.42;2.22;;;;;;;31.08;36.72;101665.44;3592363;39;20060;-67
2023/09/05 10:36:02;;;;;;;2.28;2.00;;;;;;;31.05;36.59;101664.97;3591997;39;20071;-66
2023/09/05 10:38:32;;;;;;;3.33;1.85;;;;;;;30.86;36.33;101631.41;3587323;39;20074;-67
2023/09/05 10:40:59;;;;;;;5.65;1.85;;;;;;;31.20;36.10;101674.84;3592542;39;20056;-67
2023/09/05 10:43:25;;;;;;;3.05;1.70;;;;;;;31.21;35.87;101645.16;3595187;39;20067;-66
2023/09/05 10:45:58;;;;;;;6.57;5.60;;;;;;;31.43;35.23;101670.84;3593854;39;20051;-67
2023/09/05 10:48:40;;;;;;;2.75;2.28;;;;;;;31.68;35.69;101674.72;3592962;39;20160;-67
2023/09/05 10:51:11;;;;;;;3.15;1.83;;;;;;;31.75;34.37;101663.59;3592019;39;20059;-67
2023/09/05 10:53:44;;;;;;;4.72;2.17;;;;;;;31.87;36.26;101666.56;3592501;39;20067;-66
2023/09/05 10:56:40;;;;;;;2.83;1.80;;;;;;;31.97;34.62;101655.91;3592926;39;20052;-65
2023/09/05 10:59:10;;;;;;;2.05;1.80;;;;;;;31.96;34.06;101654.16;3591854;39;20066;-67
2023/09/05 11:01:43;;;;;;;3.50;1.88;;;;;;;32.10;33.98;101655.03;3585609;39;20429;-67
2023/09/05 11:04:19;;;;;;;2.05;1.90;;;;;;;32.36;34.87;101643.78;3591896;39;21551;-71
2023/09/05 11:07:03;;;;;;;2.20;1.80;;;;;;;32.46;33.82;101648.94;3594665;39;20373;-66
2023/09/05 11:09:41;;;;;;;2.08;1.63;;;;;;;32.51;33.72;101620.41;3592281;39;20055;-67
2023/09/05 11:12:07;;;;;;;1.75;1.65;;;;;;;32.85;34.17;101647.03;3592114;39;20432;-66
2023/09/05 11:14:34;;;;;;;3.15;2.00;;;;;;;32.85;35.22;101640.59;3590292;39;20048;-67
2023/09/05 11:17:01;;;;;;;3.28;1.92;;;;;;;32.99;33.37;101639.50;3586511;39;20361;-66
2023/09/05 11:20:03;;;;;;;1.75;1.63;;;;;;;33.19;33.91;101650.50;3590473;39;20049;-66
2023/09/05 11:22:28;;;;;;;2.30;1.83;;;;;;;33.42;33.82;101652.69;3589786;39;20097;-67
2023/09/05 11:24:58;;;;;;;2.42;1.90;;;;;;;33.53;33.59;101649.19;3593130;39;20060;-67
2023/09/05 11:27:31;;;;;;;4.95;2.10;;;;;;;33.70;32.66;101649.47;3593570;39;20048;-66